< < Back
Terminal Aerodrome Forecast


Current Version              Previous Versions:   1  2  3  4  5  6  7  8  9  

Terminal Aerodrome Forecast

895
FTUS42 KGSP 210900 AAA
TAFCLT
TAF AMD
KCLT 210900Z 2109/2206 VRB03KT P6SM OVC023
     FM211300 05003KT P6SM BKN025
     FM211700 07004KT P6SM SCT025 BKN040
     FM220000 06007KT P6SM -RA OVC035=

Latest METAR

609
SAUS70 KWBC 211900 RRC
MTRCLT
METAR KCLT 211852Z 09004KT 10SM FEW024 OVC042 10/02 A3020 RMK AO2 SLP228
T01000017


USA.gov is the U.S. government's official web portal to all federal, state and local government web resources and services.